Bremgarten, Germany

12:21 PM CET on November 27, 2014 (GMT +0100)
Black Forrest Bad Krozingen Southbaden | Change Station
CLOSE
Current Station
Personal Weather Station
Location: Bad Krozingen, BADEN-WüRTTEMBERG
Elevation: 758 ft
Nearby Weather Stations

Elev 758 ft 47.92 °N, 7.71 °E | Updated 2 seconds ago

Overcast
Overcast
45.9 °F
Feels Like 46 °F
N
0.0
Wind Variable Wind from South
Gusts 0.0 mph

Today
High -- | Low -- °F
--% Chance of Precip.
Yesterday
High -- | Low -- °F
Precip. -- in
7:52 AM 4:41 PM
Waxing Crescent, 28% visible
Pressure 29.77 in
Visibility 5.6 miles
Clouds Few 900 ft
Mostly Cloudy 1500 ft
Overcast 9000 ft
Windchill 46 °F
Dew Point 44 °F
Humidity 94%
Rainfall 0.00 in
Snow Depth Not available.
UV 1.0 out of 12
Pollen Not available.
Air Quality Not available.
Flu Activity Not available.
METAR LFSB 271100Z AUTO 31005KT 290V020 9000 FEW009 BKN015 OVC090 09/08 Q1008

More Conditions Fewer Conditions

Pressure 29.77 in
Visibility 5.6 miles
Clouds Few 900 ft
Mostly Cloudy 1500 ft
Overcast 9000 ft
Windchill 46 °F
Dew Point 44 °F
Humidity 94%
Rainfall 0.00 in
Snow Depth Not available.
UV 1.0 out of 12
Pollen Not available.
Air Quality Not available.
Flu Activity Not available.
METAR LFSB 271100Z AUTO 31005KT 290V020 9000 FEW009 BKN015 OVC090 09/08 Q1008

More Conditions Fewer Conditions

10-Day Weather Forecast

Almanac

Astronomy

Nov. 27, 2014 Rise Set
Actual Time
Civil Twilight
Nautical Twilight
Astronomical Twilight
Moon
Length of Visible Light
Length of Day
Tomorrow will be .
, % of the Moon is Illuminated

Today's Extremes

Country Highs Country Lows

Community

WunderPhotos

Upload Photos

1,773,970 photos uploaded!

WunderBlogs® & News

Nearby

Air Quality

  Air Quality AQ Index Pollutant
Not available.

Snow Depth

Station Depth Elevation

Earthquake Activity

City Distance Mag. Time & Date
Minimum magnitude displayed is 2.5.

Coastal Water Temperatures

Place Temperature

Nearby Weather Stations